Hauptseite
METAR-TAF:

METAR-TAF

Flughäfen :

Leeuwarden, Niederlande

Militärflugplatz Leeuwarden

Breite: 53-13N, Länge: 005-46E, Höhe: 1 m

Beobachtung

Neuester Wetterbericht von vor 32 Minuten, um 11:25 UTC
Wind 5 kt aus West/Nordwest, variierte zwischen Süd/Südwest und Nord/Nordwest
Temperatur 19°C
Luftfeuchtigkeit 64%
Luftdruck 1023 hPa
Sichtweite 10 km oder mehr
Aufgelockert bewölkt in der Höhe von 2500 ft

METAR: EHLW 211125Z AUTO 30005KT 210V330 9999 NCD 19/12 Q1023 BLU 29005KT 9999 SCT025

Zeit: 13:57 (11:57 UTC)

Prognose

Neuester Wetterbericht von vor 4 Stunden und 8 Minuten, um 07:49 UTC
Gültige Prognose vom 21 um 09 UTC bis 21 um 21 UTC
Wind 6 kt aus West/Nordwest
Sichtweite 10 km oder mehr
Aufgelockert bewölkt in der Höhe von 2500 ft
Übergehend zu
vom 21 um 16 UTC bis 21 um 19 UTC
Wind 4 kt aus Nord

TAF: EHLW 210749Z 2109/2121 30006KT 9999 SCT025 BECMG 2116/2119 36004KT

Wetterbeobachtungen und Prognosen von mehr als 4000 Flughäfen (METAR und TAF Bericht).

Die verfügbaren Stationen werden durch gelbe und rote Markierungen auf der Karte dargestellt.

Führen Sie die Maus auf sie, um den Namen der Station zu sehen.

Darauf klicken, um die Beobachtung von Wetterbeobachtungen und Prognosen zu sehen.

Um die Karte zu ändern : klicken Sie auf den grünen Tasten mit einem schwarzen Kreuz Zum Vergrößern, auf den grünen Button mit einem Gedankenstrich zu verkleinern, oder auf die grünen Pfeile für benachbarte Karten.


METAR-TAF: